createdAt,value
2023-05-25T00:00:32.793Z,11.70
2023-05-25T00:01:35.321Z,11.70
2023-05-25T00:02:39.628Z,11.80
2023-05-25T00:03:42.323Z,11.80
2023-05-25T00:04:48.469Z,11.80
2023-05-25T00:05:50.412Z,11.80
2023-05-25T00:06:53.253Z,11.80
2023-05-25T00:07:55.287Z,11.80
2023-05-25T00:08:58.273Z,11.80
2023-05-25T00:10:00.162Z,11.80
2023-05-25T00:11:03.064Z,11.90
2023-05-25T00:12:06.001Z,11.80
2023-05-25T00:13:10.579Z,11.80
2023-05-25T00:14:12.469Z,11.80
2023-05-25T00:15:15.509Z,11.70
2023-05-25T00:16:17.484Z,11.90
2023-05-25T00:17:21.815Z,11.90
2023-05-25T00:18:25.040Z,11.90
2023-05-25T00:19:28.209Z,11.90
2023-05-25T00:20:30.095Z,11.90
2023-05-25T00:22:40.019Z,12.00
2023-05-25T00:23:43.013Z,11.90
2023-05-25T00:24:44.849Z,12.00
2023-05-25T00:25:47.720Z,11.90
2023-05-25T00:26:49.598Z,11.80
2023-05-25T00:27:52.391Z,11.80
2023-05-25T00:28:55.756Z,11.90
2023-05-25T00:29:58.788Z,11.90
2023-05-25T00:31:00.994Z,11.90
2023-05-25T00:32:04.322Z,11.90
2023-05-25T00:33:06.329Z,11.90
2023-05-25T00:34:09.299Z,11.80
2023-05-25T00:35:11.356Z,11.80
2023-05-25T00:36:14.217Z,11.80
2023-05-25T00:37:16.191Z,11.90
2023-05-25T00:38:19.922Z,11.80
2023-05-25T00:39:21.962Z,11.80
2023-05-25T00:40:24.810Z,11.70
2023-05-25T00:41:27.996Z,11.60
2023-05-25T00:42:31.494Z,11.70
2023-05-25T00:43:33.384Z,11.70
2023-05-25T00:44:37.615Z,11.70
2023-05-25T00:45:39.643Z,11.70
2023-05-25T00:46:46.634Z,11.70
2023-05-25T00:47:51.582Z,11.80
2023-05-25T00:48:56.660Z,11.80
2023-05-25T00:49:58.751Z,11.80
2023-05-25T00:51:01.660Z,11.80
2023-05-25T00:52:04.586Z,11.80
2023-05-25T00:53:08.090Z,11.80
2023-05-25T00:54:10.137Z,11.90
2023-05-25T00:55:18.773Z,11.90
2023-05-25T00:56:26.369Z,11.80
2023-05-25T00:57:34.106Z,11.80
2023-05-25T00:58:39.098Z,11.80
2023-05-25T00:59:47.434Z,11.80
2023-05-25T01:00:53.368Z,11.70
2023-05-25T01:01:58.099Z,11.80
2023-05-25T01:03:01.068Z,11.80
2023-05-25T01:04:07.306Z,11.80
2023-05-25T01:05:12.336Z,11.70
2023-05-25T01:06:16.866Z,11.80
2023-05-25T01:07:22.587Z,11.60
2023-05-25T01:08:26.485Z,11.60
2023-05-25T01:09:30.131Z,11.60
2023-05-25T01:10:34.675Z,11.60
2023-05-25T01:11:39.034Z,11.60
2023-05-25T01:12:45.188Z,11.60
2023-05-25T01:13:48.579Z,11.60
2023-05-25T01:14:54.724Z,11.60
2023-05-25T01:18:03.598Z,11.50
2023-05-25T01:19:06.932Z,11.50
2023-05-25T01:20:11.170Z,11.60
2023-05-25T01:21:22.014Z,11.50
2023-05-25T01:22:28.964Z,11.50
2023-05-25T01:23:35.818Z,11.50
2023-05-25T01:24:43.291Z,11.50
2023-05-25T01:25:52.005Z,11.60
2023-05-25T01:26:57.982Z,11.50
2023-05-25T01:28:07.916Z,11.50
2023-05-25T01:29:11.682Z,11.60
2023-05-25T01:30:16.932Z,11.60
2023-05-25T01:31:22.200Z,11.70
2023-05-25T01:32:26.277Z,11.70
2023-05-25T01:33:30.292Z,11.70
2023-05-25T01:34:33.873Z,11.70
2023-05-25T01:35:36.567Z,11.60
2023-05-25T01:36:41.773Z,11.60
2023-05-25T01:37:46.642Z,11.60
2023-05-25T01:38:50.482Z,11.70
2023-05-25T01:39:52.352Z,11.70
2023-05-25T01:40:55.489Z,11.70
2023-05-25T01:41:57.438Z,11.80
2023-05-25T01:43:00.386Z,11.70
2023-05-25T01:44:02.295Z,11.70
2023-05-25T01:45:06.049Z,11.70
2023-05-25T01:46:15.062Z,11.70
2023-05-25T01:47:28.594Z,11.70
2023-05-25T01:48:37.564Z,11.70
2023-05-25T01:49:47.416Z,11.70
2023-05-25T01:50:54.366Z,11.60
2023-05-25T01:52:08.778Z,11.60
2023-05-25T01:53:16.001Z,11.60
2023-05-25T01:54:20.112Z,12.10
2023-05-25T01:55:26.804Z,11.50
2023-05-25T01:56:31.716Z,11.50
2023-05-25T01:57:36.911Z,11.50
2023-05-25T01:58:40.667Z,11.50
2023-05-25T01:59:46.572Z,11.50
2023-05-25T02:00:50.914Z,11.60
2023-05-25T02:01:55.595Z,11.50
2023-05-25T02:02:59.685Z,11.60
2023-05-25T02:04:03.148Z,11.60
2023-05-25T02:05:06.037Z,11.60
2023-05-25T02:06:09.332Z,11.60
2023-05-25T02:07:12.568Z,11.60
2023-05-25T02:08:15.470Z,11.70
2023-05-25T02:09:17.359Z,11.60
2023-05-25T02:10:20.432Z,11.60
2023-05-25T02:11:22.259Z,11.60
2023-05-25T02:12:25.074Z,11.50
2023-05-25T02:13:27.052Z,11.50
2023-05-25T02:14:29.978Z,11.60
2023-05-25T02:15:33.387Z,11.60
2023-05-25T02:16:36.352Z,11.70
2023-05-25T02:17:38.558Z,11.70
2023-05-25T02:18:44.627Z,11.60
2023-05-25T02:19:48.872Z,10.90
2023-05-25T02:20:51.706Z,11.70
2023-05-25T02:21:53.550Z,11.70
2023-05-25T02:22:57.736Z,11.60
2023-05-25T02:24:01.248Z,11.50
2023-05-25T02:25:04.170Z,11.50
2023-05-25T02:26:06.154Z,11.60
2023-05-25T02:28:15.300Z,11.60
2023-05-25T02:29:18.392Z,11.50
2023-05-25T02:30:20.821Z,11.60
2023-05-25T02:31:23.740Z,11.50
2023-05-25T02:32:25.652Z,11.50
2023-05-25T02:33:28.724Z,11.50
2023-05-25T02:34:30.628Z,11.50
2023-05-25T02:35:33.523Z,11.50
2023-05-25T02:36:36.370Z,11.60
2023-05-25T02:37:39.386Z,11.60
2023-05-25T02:38:42.578Z,11.60
2023-05-25T02:40:47.635Z,11.50
2023-05-25T02:41:50.436Z,11.50
2023-05-25T02:42:52.509Z,11.60
2023-05-25T02:43:55.361Z,11.70
2023-05-25T02:44:57.225Z,11.60
2023-05-25T02:46:00.123Z,11.60
2023-05-25T02:47:02.161Z,11.60
2023-05-25T02:48:05.470Z,11.70
2023-05-25T02:49:07.439Z,11.70
2023-05-25T02:50:11.120Z,11.70
2023-05-25T02:51:12.985Z,11.70
2023-05-25T02:52:15.894Z,11.70
2023-05-25T02:53:17.731Z,11.60
2023-05-25T02:54:21.906Z,11.60
2023-05-25T02:55:26.030Z,11.70
2023-05-25T02:56:28.853Z,12.00
2023-05-25T02:57:30.727Z,12.20
2023-05-25T02:58:33.811Z,12.50
2023-05-25T02:59:36.054Z,12.60
2023-05-25T03:00:39.680Z,12.80
2023-05-25T03:01:42.036Z,12.90
2023-05-25T03:02:46.930Z,13.00
2023-05-25T03:03:52.505Z,13.10
2023-05-25T03:04:55.548Z,13.10
2023-05-25T03:05:57.682Z,13.20
2023-05-25T03:07:00.522Z,13.30
2023-05-25T03:08:02.500Z,13.30
2023-05-25T03:09:06.427Z,13.30
2023-05-25T03:10:10.273Z,13.40
2023-05-25T03:11:13.082Z,13.40
2023-05-25T03:12:15.033Z,13.40
2023-05-25T03:13:17.886Z,13.40
2023-05-25T03:14:19.814Z,13.50
2023-05-25T03:15:23.027Z,13.50
2023-05-25T03:16:25.966Z,13.50
2023-05-25T03:17:29.049Z,13.50
2023-05-25T03:18:30.958Z,13.50
2023-05-25T03:19:33.886Z,13.50
2023-05-25T03:20:35.980Z,13.60
2023-05-25T03:21:39.104Z,13.60
2023-05-25T03:22:41.703Z,13.50
2023-05-25T03:23:44.523Z,13.60
2023-05-25T03:24:46.599Z,13.60
2023-05-25T03:25:51.257Z,13.50
2023-05-25T03:26:53.089Z,13.60
2023-05-25T03:27:55.962Z,13.60
2023-05-25T03:28:57.866Z,13.70
2023-05-25T03:30:00.667Z,13.60
2023-05-25T03:31:02.506Z,13.70
2023-05-25T03:32:05.950Z,13.70
2023-05-25T03:33:07.894Z,13.70
2023-05-25T03:34:10.834Z,13.70
2023-05-25T03:35:12.719Z,13.70
2023-05-25T03:36:17.320Z,13.80
2023-05-25T03:37:19.213Z,13.80
2023-05-25T03:38:22.027Z,13.80
2023-05-25T03:39:23.891Z,13.80
2023-05-25T03:40:26.770Z,13.80
2023-05-25T03:41:31.180Z,13.80
2023-05-25T03:42:33.025Z,13.80
2023-05-25T03:43:35.929Z,13.80
2023-05-25T03:44:39.300Z,13.80
2023-05-25T03:45:44.235Z,13.80
2023-05-25T03:46:46.256Z,13.80
2023-05-25T03:47:49.991Z,13.80
2023-05-25T03:48:51.933Z,13.80
2023-05-25T03:49:54.786Z,13.80
2023-05-25T03:50:56.673Z,13.80
2023-05-25T03:52:01.168Z,13.80
2023-05-25T03:53:03.092Z,13.80
2023-05-25T03:54:06.054Z,13.70
2023-05-25T03:55:10.804Z,13.80
2023-05-25T03:56:13.597Z,13.80
2023-05-25T03:57:16.771Z,13.80
2023-05-25T03:58:19.646Z,13.80
2023-05-25T03:59:21.558Z,13.80
2023-05-25T04:00:24.466Z,13.80
2023-05-25T04:01:26.552Z,13.90
2023-05-25T04:02:29.403Z,13.80
2023-05-25T04:03:33.192Z,13.90
2023-05-25T04:04:36.312Z,13.80
2023-05-25T04:05:38.610Z,13.80
2023-05-25T04:06:42.668Z,13.90
2023-05-25T04:07:46.012Z,13.80
2023-05-25T04:08:48.069Z,13.90
2023-05-25T04:09:51.028Z,13.90
2023-05-25T04:10:52.997Z,13.90
2023-05-25T04:11:56.017Z,13.90
2023-05-25T04:13:00.033Z,13.90
2023-05-25T04:14:02.875Z,13.90
2023-05-25T04:15:09.014Z,13.90
2023-05-25T04:16:13.142Z,13.90
2023-05-25T04:17:15.412Z,13.90
2023-05-25T04:18:19.057Z,13.80
2023-05-25T04:19:21.007Z,13.80
2023-05-25T04:20:23.846Z,13.80
2023-05-25T04:21:26.649Z,13.90
2023-05-25T04:22:29.544Z,13.90
2023-05-25T04:23:33.845Z,13.90
2023-05-25T04:24:36.695Z,13.90
2023-05-25T04:25:38.566Z,13.90
2023-05-25T04:26:41.475Z,13.80
2023-05-25T04:27:46.609Z,13.80
2023-05-25T04:28:50.765Z,13.90
2023-05-25T04:29:54.264Z,13.80
2023-05-25T04:30:57.700Z,13.80
2023-05-25T04:31:59.734Z,13.80
2023-05-25T04:33:03.155Z,13.80
2023-05-25T04:34:05.134Z,13.80
2023-05-25T04:35:09.661Z,13.80
2023-05-25T04:36:11.575Z,13.80
2023-05-25T04:37:14.649Z,13.80
2023-05-25T04:38:17.617Z,13.80
2023-05-25T04:39:20.509Z,13.80
2023-05-25T04:40:22.424Z,13.80
2023-05-25T04:41:25.862Z,13.80
2023-05-25T04:42:28.841Z,13.80
2023-05-25T04:43:31.700Z,13.80
2023-05-25T04:44:36.032Z,13.80
2023-05-25T04:45:39.371Z,13.80
2023-05-25T04:46:41.272Z,13.80
2023-05-25T04:47:45.750Z,13.80
2023-05-25T04:48:47.699Z,13.80
2023-05-25T04:49:50.554Z,13.80
2023-05-25T04:50:53.105Z,13.80
2023-05-25T04:51:56.592Z,13.80
2023-05-25T04:52:58.487Z,13.80
2023-05-25T04:54:01.844Z,13.80
2023-05-25T04:55:04.038Z,13.80
2023-05-25T04:56:07.174Z,13.80
2023-05-25T04:57:09.370Z,13.80
2023-05-25T04:58:14.554Z,13.80
2023-05-25T04:59:16.789Z,13.80
2023-05-25T05:00:21.862Z,13.80
2023-05-25T05:01:24.090Z,13.80
2023-05-25T05:02:27.070Z,13.90
2023-05-25T05:03:29.057Z,13.80
2023-05-25T05:04:31.951Z,13.80
2023-05-25T05:05:34.974Z,13.90
2023-05-25T05:06:37.927Z,13.90
2023-05-25T05:07:39.896Z,13.90
2023-05-25T05:08:42.730Z,13.90
2023-05-25T05:09:44.612Z,13.90
2023-05-25T05:10:47.450Z,12.80
2023-05-25T05:11:49.298Z,12.40
2023-05-25T05:12:52.236Z,12.20
2023-05-25T05:13:54.293Z,12.00
2023-05-25T05:14:57.092Z,11.90
2023-05-25T05:16:01.294Z,11.90
2023-05-25T05:17:03.452Z,11.80
2023-05-25T05:18:08.621Z,11.80
2023-05-25T05:19:11.036Z,11.80
2023-05-25T05:20:14.276Z,11.80
2023-05-25T05:21:16.206Z,11.80
2023-05-25T05:22:19.001Z,11.70
2023-05-25T05:23:20.863Z,11.60
2023-05-25T05:24:23.716Z,11.70
2023-05-25T05:25:25.563Z,11.70
2023-05-25T05:26:28.711Z,11.60
2023-05-25T05:27:30.700Z,11.70
2023-05-25T05:28:33.620Z,11.80
2023-05-25T05:29:37.388Z,11.80
2023-05-25T05:30:40.945Z,11.80
2023-05-25T05:31:44.195Z,11.80
2023-05-25T05:32:47.087Z,11.90
2023-05-25T05:33:49.223Z,11.90
2023-05-25T05:34:52.138Z,11.90
2023-05-25T05:35:54.598Z,11.90
2023-05-25T05:36:58.825Z,12.00
2023-05-25T05:38:01.203Z,11.90
2023-05-25T05:39:04.117Z,11.90
2023-05-25T05:42:29.298Z,11.90
2023-05-25T05:43:31.849Z,12.00
2023-05-25T05:44:34.700Z,12.10
2023-05-25T05:45:38.580Z,12.10
2023-05-25T05:46:41.651Z,12.10
2023-05-25T05:47:44.951Z,12.10
2023-05-25T05:48:47.784Z,12.00
2023-05-25T05:50:53.274Z,12.10
2023-05-25T05:51:55.119Z,12.20
2023-05-25T05:52:57.925Z,12.20
2023-05-25T05:55:03.184Z,12.20
2023-05-25T05:56:07.085Z,12.30
2023-05-25T05:57:08.939Z,12.30
2023-05-25T05:58:11.803Z,12.30
2023-05-25T05:59:13.777Z,12.30
2023-05-25T06:00:17.752Z,12.30
2023-05-25T06:01:19.596Z,12.40
2023-05-25T06:02:22.455Z,12.40
2023-05-25T06:03:28.745Z,12.30
2023-05-25T06:04:30.677Z,12.50
2023-05-25T06:05:33.573Z,12.50
2023-05-25T06:06:35.776Z,12.50
2023-05-25T06:07:38.736Z,12.50
2023-05-25T06:08:41.977Z,12.50
2023-05-25T06:09:44.765Z,12.60
2023-05-25T06:11:49.803Z,12.60
2023-05-25T06:12:52.411Z,12.70
2023-05-25T06:13:55.322Z,12.70
2023-05-25T06:14:57.201Z,12.80
2023-05-25T06:16:00.008Z,12.80
2023-05-25T06:17:02.271Z,12.80
2023-05-25T06:18:05.529Z,12.80
2023-05-25T06:19:08.839Z,12.70
2023-05-25T06:20:12.378Z,12.80
2023-05-25T06:21:14.324Z,12.80
2023-05-25T06:22:17.241Z,12.80
2023-05-25T06:23:19.194Z,12.80
2023-05-25T06:24:22.058Z,12.90
2023-05-25T06:25:23.945Z,12.90
2023-05-25T06:26:27.211Z,12.90
2023-05-25T06:27:29.149Z,12.90
2023-05-25T06:28:32.051Z,13.00
2023-05-25T06:29:34.014Z,12.90
2023-05-25T06:30:36.945Z,13.00
2023-05-25T06:31:38.833Z,13.00
2023-05-25T06:32:43.354Z,13.10
2023-05-25T06:33:45.452Z,13.10
2023-05-25T06:34:49.668Z,13.10
2023-05-25T06:35:52.659Z,13.20
2023-05-25T06:36:55.665Z,13.20
2023-05-25T06:37:57.561Z,13.20
2023-05-25T06:39:00.414Z,13.20
2023-05-25T06:40:03.377Z,13.30
2023-05-25T06:41:05.851Z,13.30
2023-05-25T06:42:09.093Z,13.30
2023-05-25T06:43:10.942Z,13.30
2023-05-25T06:44:13.740Z,13.40
2023-05-25T06:45:16.570Z,13.40
2023-05-25T06:46:19.873Z,13.50
2023-05-25T06:47:21.862Z,13.60
2023-05-25T06:48:24.737Z,13.60
2023-05-25T06:49:27.555Z,13.60
2023-05-25T06:50:30.745Z,13.60
2023-05-25T06:51:33.847Z,13.60
2023-05-25T06:52:35.756Z,13.70
2023-05-25T06:53:39.536Z,13.70
2023-05-25T06:54:42.414Z,13.70
2023-05-25T06:55:44.508Z,13.70
2023-05-25T06:56:47.714Z,13.80
2023-05-25T06:57:50.275Z,13.80
2023-05-25T06:58:53.314Z,13.80
2023-05-25T06:59:55.554Z,13.90
2023-05-25T07:01:00.322Z,13.90
2023-05-25T07:02:02.211Z,14.00
2023-05-25T07:03:05.167Z,14.00
2023-05-25T07:04:07.103Z,14.10
2023-05-25T07:05:11.265Z,14.20
2023-05-25T07:06:15.223Z,14.20
2023-05-25T07:07:18.234Z,14.20
2023-05-25T07:08:20.158Z,14.20
2023-05-25T07:09:23.178Z,14.20
2023-05-25T07:10:25.114Z,14.30
2023-05-25T07:11:27.966Z,14.30
2023-05-25T07:12:31.415Z,14.40
2023-05-25T07:13:34.233Z,14.40
2023-05-25T07:14:37.071Z,14.40
2023-05-25T07:15:39.377Z,14.50
2023-05-25T07:16:42.283Z,14.50
2023-05-25T07:17:44.336Z,14.50
2023-05-25T07:18:47.790Z,14.50
2023-05-25T07:19:50.086Z,14.60
2023-05-25T07:20:53.500Z,14.60
2023-05-25T07:21:56.730Z,14.60
2023-05-25T07:22:59.556Z,14.60
2023-05-25T07:24:01.582Z,14.60
2023-05-25T07:25:04.783Z,14.60
2023-05-25T07:26:06.634Z,14.60
2023-05-25T07:27:09.610Z,14.60
2023-05-25T07:28:13.790Z,14.60
2023-05-25T07:29:15.736Z,14.60
2023-05-25T07:30:18.544Z,14.70
2023-05-25T07:31:20.645Z,14.70
2023-05-25T07:32:23.481Z,14.70
2023-05-25T07:33:26.353Z,14.70
2023-05-25T07:34:29.216Z,14.70
2023-05-25T07:35:31.245Z,14.70
2023-05-25T07:36:34.069Z,14.80
2023-05-25T07:37:38.194Z,14.80
2023-05-25T07:38:40.125Z,14.80
2023-05-25T07:39:43.010Z,14.80
2023-05-25T07:40:47.158Z,14.90
2023-05-25T07:41:49.982Z,14.80
2023-05-25T07:42:51.873Z,14.80
2023-05-25T07:43:54.739Z,14.90
2023-05-25T07:44:56.636Z,14.90
2023-05-25T07:45:59.492Z,14.90
2023-05-25T07:47:02.373Z,14.90
2023-05-25T07:48:07.151Z,15.00
2023-05-25T07:49:13.176Z,15.00
2023-05-25T07:50:15.793Z,15.00
2023-05-25T07:51:18.647Z,15.00
2023-05-25T07:52:20.645Z,14.90
2023-05-25T07:53:26.657Z,15.00
2023-05-25T07:54:28.549Z,15.00
2023-05-25T07:55:31.491Z,15.00
2023-05-25T07:56:33.330Z,15.00
2023-05-25T07:57:36.463Z,15.00
2023-05-25T07:58:39.716Z,15.10
2023-05-25T07:59:41.557Z,15.00
2023-05-25T08:00:44.423Z,15.00
2023-05-25T08:01:47.289Z,15.10
2023-05-25T08:02:50.620Z,15.10
2023-05-25T08:03:52.784Z,15.10
2023-05-25T08:04:56.160Z,15.10
2023-05-25T08:05:58.015Z,15.10
2023-05-25T08:07:01.476Z,15.20
2023-05-25T08:08:03.841Z,15.20
2023-05-25T08:09:07.985Z,15.20
2023-05-25T08:10:10.387Z,15.20
2023-05-25T08:11:13.257Z,15.20
2023-05-25T08:12:37.963Z,15.20
2023-05-25T08:13:38.992Z,15.20
2023-05-25T08:14:40.901Z,15.20
2023-05-25T08:15:43.957Z,15.20
2023-05-25T08:16:46.104Z,15.20
2023-05-25T08:17:50.783Z,15.20
2023-05-25T08:18:52.897Z,15.30
2023-05-25T08:19:55.889Z,15.30
2023-05-25T08:20:57.919Z,15.30
2023-05-25T08:22:00.728Z,15.30
2023-05-25T08:23:04.749Z,15.20
2023-05-25T08:24:08.533Z,15.20
2023-05-25T08:25:11.654Z,15.20
2023-05-25T08:27:19.737Z,15.20
2023-05-25T08:28:22.271Z,15.20
2023-05-25T08:29:25.173Z,15.20
2023-05-25T08:30:27.192Z,15.30
2023-05-25T08:31:30.096Z,15.40
2023-05-25T08:32:32.111Z,15.50
2023-05-25T08:33:34.966Z,15.70
2023-05-25T08:34:37.868Z,15.70
2023-05-25T08:35:43.088Z,15.70
2023-05-25T08:36:45.715Z,15.80
2023-05-25T08:37:48.549Z,15.70
2023-05-25T08:38:50.377Z,15.70
2023-05-25T08:39:54.548Z,15.70
2023-05-25T08:41:04.404Z,15.70
2023-05-25T08:42:08.079Z,15.80
2023-05-25T08:43:10.108Z,15.70
2023-05-25T08:44:14.533Z,15.70
2023-05-25T08:45:33.638Z,15.70
2023-05-25T08:46:40.499Z,15.70
2023-05-25T08:47:43.336Z,15.80
2023-05-25T08:48:47.598Z,15.80
2023-05-25T08:49:52.561Z,16.00
2023-05-25T08:50:55.958Z,16.10
2023-05-25T08:51:58.912Z,16.00
2023-05-25T08:53:04.686Z,16.00
2023-05-25T08:54:10.185Z,15.90
2023-05-25T08:55:14.788Z,15.90
2023-05-25T08:56:20.783Z,16.00
2023-05-25T08:57:29.639Z,16.00
2023-05-25T08:58:34.998Z,16.00
2023-05-25T08:59:43.835Z,16.00
2023-05-25T09:00:56.358Z,15.90
2023-05-25T09:02:14.025Z,15.90
2023-05-25T09:03:18.024Z,15.90
2023-05-25T09:04:23.261Z,15.80
2023-05-25T09:05:26.474Z,16.00
2023-05-25T09:06:28.606Z,16.20
2023-05-25T09:07:31.703Z,16.70
2023-05-25T09:08:34.346Z,16.60
2023-05-25T09:09:38.670Z,16.60
2023-05-25T09:10:43.882Z,16.70
2023-05-25T09:11:47.036Z,16.70
2023-05-25T09:12:51.722Z,16.70
2023-05-25T09:13:55.242Z,16.40
2023-05-25T09:14:58.942Z,16.30
2023-05-25T09:16:02.222Z,16.20
2023-05-25T09:17:04.606Z,16.20
2023-05-25T09:18:07.449Z,16.30
2023-05-25T09:19:09.419Z,16.40
2023-05-25T09:20:13.929Z,16.50
2023-05-25T09:21:16.046Z,16.40
2023-05-25T09:22:19.058Z,16.50
2023-05-25T09:23:21.365Z,16.50
2023-05-25T09:24:24.897Z,16.50
2023-05-25T09:25:28.847Z,16.30
2023-05-25T09:26:33.600Z,16.50
2023-05-25T09:27:36.748Z,16.50
2023-05-25T09:28:46.592Z,16.60
2023-05-25T09:29:48.739Z,16.70
2023-05-25T09:30:51.749Z,16.70
2023-05-25T09:31:55.004Z,17.10
2023-05-25T09:33:09.774Z,17.60
2023-05-25T09:34:12.314Z,18.10
2023-05-25T09:35:16.217Z,18.10
2023-05-25T09:36:21.969Z,17.60
2023-05-25T09:37:25.208Z,17.20
2023-05-25T09:38:28.288Z,16.80
2023-05-25T09:39:30.570Z,16.70
2023-05-25T09:40:35.048Z,16.60
2023-05-25T09:41:41.684Z,16.40
2023-05-25T09:42:43.528Z,16.50
2023-05-25T09:43:58.073Z,16.40
2023-05-25T09:45:09.855Z,16.80
2023-05-25T09:46:13.942Z,16.60
2023-05-25T09:47:18.188Z,16.50
2023-05-25T09:48:21.467Z,16.50
2023-05-25T09:49:24.321Z,16.70
2023-05-25T09:50:28.664Z,16.70
2023-05-25T09:51:33.357Z,16.90
2023-05-25T09:52:37.151Z,16.90
2023-05-25T09:53:40.010Z,16.80
2023-05-25T09:54:44.665Z,16.90
2023-05-25T09:55:53.098Z,16.90
2023-05-25T09:56:58.286Z,16.70
2023-05-25T09:58:00.195Z,16.90
2023-05-25T09:59:03.977Z,16.60
2023-05-25T10:00:10.169Z,16.50
2023-05-25T10:01:12.301Z,16.60
2023-05-25T10:02:15.792Z,16.80
2023-05-25T10:03:17.764Z,16.80
2023-05-25T10:04:20.859Z,16.70
2023-05-25T10:05:23.935Z,16.70
2023-05-25T10:06:29.485Z,17.10
2023-05-25T10:07:34.482Z,17.00
2023-05-25T10:08:37.375Z,16.90
2023-05-25T10:09:41.390Z,16.80
2023-05-25T10:10:44.998Z,17.10
2023-05-25T10:11:52.555Z,17.10
2023-05-25T10:12:58.081Z,17.00
2023-05-25T10:14:06.056Z,17.10
2023-05-25T10:15:12.081Z,17.10
2023-05-25T10:16:17.995Z,17.30
2023-05-25T10:17:24.573Z,17.10
2023-05-25T10:18:29.887Z,17.20
2023-05-25T10:19:41.197Z,17.50
2023-05-25T10:20:45.670Z,17.20
2023-05-25T10:21:53.297Z,17.50
2023-05-25T10:23:01.656Z,18.20
2023-05-25T10:24:06.605Z,17.60
2023-05-25T10:25:13.703Z,17.40
2023-05-25T10:26:21.377Z,17.10
2023-05-25T10:27:27.865Z,16.90
2023-05-25T10:28:38.061Z,17.10
2023-05-25T10:29:40.485Z,17.10
2023-05-25T10:30:44.090Z,17.00
2023-05-25T10:31:47.116Z,17.30
2023-05-25T10:32:50.137Z,17.20
2023-05-25T10:33:53.424Z,17.00
2023-05-25T10:34:56.820Z,17.00
2023-05-25T10:36:09.287Z,17.30
2023-05-25T10:37:15.366Z,17.40
2023-05-25T10:38:19.401Z,17.20
2023-05-25T10:39:24.868Z,17.00
2023-05-25T10:40:26.916Z,16.90
2023-05-25T10:41:29.759Z,16.90
2023-05-25T10:42:32.075Z,16.70
2023-05-25T10:43:36.832Z,16.70
2023-05-25T10:44:39.784Z,16.70
2023-05-25T10:45:43.763Z,16.60
2023-05-25T10:46:47.117Z,17.20
2023-05-25T10:47:51.070Z,17.10
2023-05-25T10:48:53.074Z,17.10
2023-05-25T10:49:58.027Z,16.90
2023-05-25T10:51:00.019Z,16.90
2023-05-25T10:52:04.041Z,16.70
2023-05-25T10:53:07.341Z,16.90
2023-05-25T10:54:14.587Z,16.60
2023-05-25T10:55:17.721Z,16.60
2023-05-25T10:56:20.739Z,16.70
2023-05-25T10:57:23.968Z,17.30
2023-05-25T10:58:29.302Z,16.90
2023-05-25T10:59:32.510Z,16.90
2023-05-25T11:00:35.445Z,16.80
2023-05-25T11:01:51.339Z,16.70
2023-05-25T11:02:55.724Z,17.70
2023-05-25T11:04:17.086Z,17.50
2023-05-25T11:05:38.163Z,17.30
2023-05-25T11:07:13.292Z,17.30
2023-05-25T11:08:17.702Z,16.80
2023-05-25T11:09:26.766Z,16.70
2023-05-25T11:10:54.525Z,16.80
2023-05-25T11:12:03.969Z,17.00
2023-05-25T11:13:24.180Z,16.90
2023-05-25T11:14:30.641Z,16.60
2023-05-25T11:15:36.128Z,16.60
2023-05-25T11:16:40.167Z,16.60
2023-05-25T11:17:47.918Z,16.50
2023-05-25T11:18:53.007Z,16.70
2023-05-25T11:20:02.159Z,16.60
2023-05-25T11:21:22.849Z,16.50
2023-05-25T11:22:32.740Z,16.50
2023-05-25T11:23:39.540Z,16.50
2023-05-25T11:24:44.935Z,16.50
2023-05-25T11:25:46.950Z,16.50
2023-05-25T11:27:02.981Z,16.50
2023-05-25T11:28:06.659Z,16.50
2023-05-25T11:29:14.292Z,16.60
2023-05-25T11:30:18.333Z,16.60
2023-05-25T11:31:29.943Z,16.50
2023-05-25T11:32:31.999Z,16.50
2023-05-25T11:33:34.911Z,16.40
2023-05-25T11:34:37.823Z,16.40
2023-05-25T11:35:41.568Z,16.40
2023-05-25T11:36:44.396Z,16.40
2023-05-25T11:37:53.565Z,16.40
2023-05-25T11:40:09.260Z,16.40
2023-05-25T11:41:16.920Z,16.50
2023-05-25T11:42:22.135Z,16.50
2023-05-25T11:43:26.889Z,16.40
2023-05-25T11:44:31.799Z,16.50
2023-05-25T11:45:34.001Z,16.50
2023-05-25T11:46:38.584Z,16.50
2023-05-25T11:47:41.589Z,16.40
2023-05-25T11:48:44.278Z,16.50
2023-05-25T11:49:49.713Z,16.40
2023-05-25T11:51:04.646Z,16.50
2023-05-25T11:52:08.034Z,16.50
2023-05-25T11:53:11.204Z,16.40
2023-05-25T11:54:22.762Z,16.60
2023-05-25T11:55:25.656Z,16.60
2023-05-25T11:56:35.740Z,16.60
2023-05-25T11:57:40.321Z,16.50
2023-05-25T11:58:44.494Z,16.40
2023-05-25T11:59:51.232Z,16.90
2023-05-25T12:00:53.138Z,16.80
2023-05-25T12:02:01.647Z,16.70
2023-05-25T12:03:03.698Z,16.60
2023-05-25T12:04:10.614Z,16.80
2023-05-25T12:05:12.656Z,16.60
2023-05-25T12:06:26.534Z,16.60
2023-05-25T12:07:30.900Z,16.50
2023-05-25T12:08:33.035Z,16.50
2023-05-25T12:09:36.625Z,17.00
2023-05-25T12:10:51.522Z,16.70
2023-05-25T12:11:54.849Z,16.60
2023-05-25T12:12:58.462Z,16.50
2023-05-25T12:14:01.315Z,16.50
2023-05-25T12:15:04.497Z,16.40
2023-05-25T12:16:07.873Z,16.50
2023-05-25T12:17:11.293Z,16.50
2023-05-25T12:18:14.443Z,16.60
2023-05-25T12:19:16.895Z,16.50
2023-05-25T12:20:20.575Z,16.50
2023-05-25T12:21:23.176Z,16.50
2023-05-25T12:22:26.069Z,16.50
2023-05-25T12:23:28.967Z,16.50
2023-05-25T12:24:31.864Z,16.50
2023-05-25T12:25:46.510Z,16.50
2023-05-25T12:26:57.305Z,16.60
2023-05-25T12:28:12.945Z,16.50
2023-05-25T12:29:15.106Z,16.40
2023-05-25T12:30:17.964Z,16.40
2023-05-25T12:31:21.451Z,16.50
2023-05-25T12:32:25.921Z,16.40
2023-05-25T12:33:27.798Z,16.70
2023-05-25T12:34:30.725Z,17.50
2023-05-25T12:35:46.719Z,17.20
2023-05-25T12:36:51.663Z,17.00
2023-05-25T12:38:11.465Z,16.80
2023-05-25T12:39:17.556Z,16.60
2023-05-25T12:40:23.170Z,16.50
2023-05-25T12:41:25.024Z,16.50
2023-05-25T12:42:30.013Z,16.50
2023-05-25T12:43:37.927Z,16.50
2023-05-25T12:44:41.434Z,16.50
2023-05-25T12:45:43.928Z,16.50
2023-05-25T12:46:46.914Z,16.50
2023-05-25T12:47:53.286Z,16.50
2023-05-25T12:48:56.190Z,16.50
2023-05-25T12:50:12.964Z,16.50
2023-05-25T12:51:14.874Z,16.50
2023-05-25T12:52:33.385Z,16.50
2023-05-25T12:53:47.306Z,16.60
2023-05-25T12:54:50.268Z,16.50
2023-05-25T12:56:00.886Z,16.50
2023-05-25T12:57:05.716Z,16.50
2023-05-25T12:58:09.073Z,16.50
2023-05-25T12:59:17.096Z,16.40
2023-05-25T13:00:22.120Z,16.40
2023-05-25T13:01:24.067Z,16.50
2023-05-25T13:02:27.031Z,16.40
2023-05-25T13:03:30.826Z,16.40
2023-05-25T13:04:33.928Z,16.50
2023-05-25T13:05:38.825Z,16.50
2023-05-25T13:06:40.815Z,16.50
2023-05-25T13:07:44.107Z,16.50
2023-05-25T13:08:47.480Z,16.50
2023-05-25T13:09:50.406Z,16.50
2023-05-25T13:10:52.283Z,16.60
2023-05-25T13:11:55.929Z,16.50
2023-05-25T13:12:58.467Z,16.60
2023-05-25T13:14:01.512Z,16.50
2023-05-25T13:15:04.693Z,16.50
2023-05-25T13:16:07.919Z,16.50
2023-05-25T13:17:10.957Z,16.50
2023-05-25T13:18:12.973Z,16.50
2023-05-25T13:19:17.435Z,16.50
2023-05-25T13:20:22.022Z,16.50
2023-05-25T13:21:23.953Z,16.60
2023-05-25T13:22:27.294Z,16.60
2023-05-25T13:23:30.148Z,16.50
2023-05-25T13:24:32.973Z,16.50
2023-05-25T13:25:34.849Z,16.50
2023-05-25T13:26:37.735Z,16.40
2023-05-25T13:27:46.002Z,16.40
2023-05-25T13:28:48.506Z,16.40
2023-05-25T13:29:52.015Z,16.40
2023-05-25T13:30:54.830Z,16.40
2023-05-25T13:31:56.764Z,16.50
2023-05-25T13:33:00.208Z,16.40
2023-05-25T13:34:02.995Z,16.50
2023-05-25T13:35:08.141Z,16.50
2023-05-25T13:36:10.137Z,16.50
2023-05-25T13:37:12.949Z,16.50
2023-05-25T13:38:17.172Z,16.50
2023-05-25T13:39:21.931Z,16.50
2023-05-25T13:40:24.277Z,16.50
2023-05-25T13:41:27.282Z,16.60
2023-05-25T13:42:30.090Z,16.60
2023-05-25T13:43:31.923Z,16.60
2023-05-25T13:44:34.739Z,16.60
2023-05-25T13:45:38.050Z,16.60
2023-05-25T13:46:41.115Z,16.60
2023-05-25T13:47:43.990Z,16.60
2023-05-25T13:48:47.703Z,16.50
2023-05-25T13:49:49.602Z,16.60
2023-05-25T13:50:53.779Z,16.60
2023-05-25T13:51:56.802Z,16.50
2023-05-25T13:52:58.697Z,16.60
2023-05-25T13:54:01.568Z,16.60
2023-05-25T13:55:03.818Z,16.60
2023-05-25T13:56:07.336Z,16.60
2023-05-25T13:57:10.149Z,16.60
2023-05-25T13:58:12.017Z,16.60